Terminal Aerodrome Forecast
Issued by NWS Columbia, SC

Home | Current Version | Previous Version | Text Only | Print | Product List | Glossary On
Versions: 1 2 3 4 5 6 7 8 9 10 11 12 13 14 15 16 17 18 19 20 21 22 23 24 25 26 27 28 29 30 31 32 33 34 35 36
000
FTAK31 PAJN 291700
TAFAGS
TAF
PAGS 291734Z 2918/3018 12006KT P6SM -SHRA FEW030 OVC050
     FM292100 13008KT P6SM VCSH SCT025 OVC050
     FM300300 VRB03KT P6SM SCT020 BKN040 OVC060
     FM300800 00000KT P6SM SCT015 OVC040
     FM301300 00000KT 5SM BR SCT008 OVC015
     FM301700 14002KT 5SM -RA BR FEW008 BKN015 OVC030
      AMD NOT SKED=

USA.gov is the U.S. government's official web portal to all federal, state and local government web resources and services.